Time;durP1;ratioP1;P1;durP2;ratioP2;P2;SDS_P1;SDS_P2;PMS_P1;PMS_P2;Temp;Humidity;BMP_temperature;BMP_pressure;BME280_temperature;BME280_humidity;BME280_pressure;Samples;Min_cycle;Max_cycle;Signal;HPM_P1;HPM_P2
2023/04/08 00:00:14;;;;;;;4.63;3.08;;;;;;;;;;6327443;22;19999;-78
2023/04/08 00:02:41;;;;;;;3.85;2.80;;;;;;;;;;6325257;22;20052;-77
2023/04/08 00:05:07;;;;;;;11.73;4.47;;;;;;;;;;6321599;22;20031;-79
2023/04/08 00:07:33;;;;;;;5.78;3.67;;;;;;;;;;6317652;22;20051;-80
2023/04/08 00:09:59;;;;;;;6.05;3.63;;;;;;;;;;6322599;22;20047;-79
2023/04/08 00:12:26;;;;;;;4.97;2.95;;;;;;;;;;6322636;22;20378;-79
2023/04/08 00:14:52;;;;;;;6.60;3.80;;;;;;;;;;6317573;22;20007;-80
2023/04/08 00:17:18;;;;;;;5.57;3.50;;;;;;;;;;6313971;22;20015;-79
2023/04/08 00:19:44;;;;;;;4.93;3.25;;;;;;;;;;6317715;22;20025;-79
2023/04/08 00:22:12;;;;;;;3.97;2.97;;;;;;;;;;6320553;22;20009;-79
2023/04/08 00:24:39;;;;;;;6.85;3.28;;;;;;;;;;6324885;22;19999;-79
2023/04/08 00:27:05;;;;;;;4.53;2.83;;;;;;;;;;6322205;22;19999;-79
2023/04/08 00:29:31;;;;;;;4.90;3.33;;;;;;;;;;6323386;22;19987;-79
2023/04/08 00:31:57;;;;;;;3.72;3.35;;;;;;;;;;6320219;22;20034;-79
2023/04/08 00:34:24;;;;;;;6.68;3.30;;;;;;;;;;6323635;22;20023;-80
2023/04/08 00:36:50;;;;;;;6.60;3.17;;;;;;;;;;6319988;22;20415;-79
2023/04/08 00:39:16;;;;;;;9.88;3.90;;;;;;;;;;6322128;22;20208;-79
2023/04/08 00:41:42;;;;;;;5.07;3.45;;;;;;;;;;6322181;22;19998;-79
2023/04/08 00:44:09;;;;;;;8.02;4.03;;;;;;;;;;6322478;22;19999;-79
2023/04/08 00:46:36;;;;;;;7.82;3.15;;;;;;;;;;6323861;22;20026;-79
2023/04/08 00:49:03;;;;;;;4.95;2.97;;;;;;;;;;6317878;22;20003;-79
2023/04/08 00:51:30;;;;;;;7.63;3.15;;;;;;;;;;6316118;22;19999;-80
2023/04/08 00:53:56;;;;;;;4.88;2.53;;;;;;;;;;6317411;22;20007;-79
2023/04/08 00:56:22;;;;;;;6.18;2.92;;;;;;;;;;6318505;22;20003;-80
2023/04/08 00:58:49;;;;;;;6.82;3.67;;;;;;;;;;6316706;22;20006;-79
2023/04/08 01:01:21;;;;;;;4.47;2.90;;;;;;;;;;6321843;22;20002;-78
2023/04/08 01:03:57;;;;;;;4.10;3.20;;;;;;;;;;6321176;22;20019;-80
2023/04/08 01:06:42;;;;;;;5.55;3.47;;;;;;;;;;6322356;22;20008;-79
2023/04/08 01:09:08;;;;;;;6.05;3.20;;;;;;;;;;6319571;22;20344;-79
2023/04/08 01:11:35;;;;;;;5.00;3.08;;;;;;;;;;6320292;22;20027;-79
2023/04/08 01:14:04;;;;;;;4.57;3.05;;;;;;;;;;6323601;22;19991;-79
2023/04/08 01:16:30;;;;;;;5.65;3.13;;;;;;;;;;6321348;22;20007;-78
2023/04/08 01:18:56;;;;;;;6.57;3.60;;;;;;;;;;6320773;22;20101;-78
2023/04/08 01:21:23;;;;;;;6.85;3.25;;;;;;;;;;6318922;22;20035;-79
2023/04/08 01:24:13;;;;;;;4.35;3.28;;;;;;;;;;6316718;22;19998;-80
2023/04/08 01:26:40;;;;;;;4.88;2.95;;;;;;;;;;6316586;22;20027;-79
2023/04/08 01:29:07;;;;;;;7.05;2.90;;;;;;;;;;6321069;22;20000;-78
2023/04/08 01:31:35;;;;;;;7.03;3.38;;;;;;;;;;6319072;22;19999;-79
2023/04/08 01:34:03;;;;;;;4.18;3.17;;;;;;;;;;6319905;22;20215;-79
2023/04/08 01:36:31;;;;;;;5.18;3.30;;;;;;;;;;6316436;22;20010;-79
2023/04/08 01:38:58;;;;;;;4.30;3.08;;;;;;;;;;6319809;22;20010;-80
2023/04/08 01:41:24;;;;;;;4.88;2.90;;;;;;;;;;6324297;22;20025;-79
2023/04/08 01:43:52;;;;;;;4.93;3.20;;;;;;;;;;6319308;22;20381;-80
2023/04/08 01:46:18;;;;;;;4.55;2.70;;;;;;;;;;6320099;22;19995;-79
2023/04/08 01:48:45;;;;;;;5.88;2.72;;;;;;;;;;6320138;22;20046;-80
2023/04/08 01:51:11;;;;;;;5.05;2.70;;;;;;;;;;6318794;22;20086;-79
2023/04/08 01:53:37;;;;;;;3.35;2.47;;;;;;;;;;6319003;22;20006;-80
2023/04/08 01:56:06;;;;;;;5.63;3.28;;;;;;;;;;6314919;22;20037;-80
2023/04/08 01:58:39;;;;;;;4.38;2.50;;;;;;;;;;6322067;22;20013;-79
2023/04/08 02:01:11;;;;;;;3.55;2.88;;;;;;;;;;6318384;22;20017;-80
2023/04/08 02:03:37;;;;;;;3.70;2.97;;;;;;;;;;6322042;22;19991;-80
2023/04/08 02:06:03;;;;;;;6.30;3.13;;;;;;;;;;6317109;22;20009;-78
2023/04/08 02:08:30;;;;;;;4.70;3.10;;;;;;;;;;6318240;22;20003;-81
2023/04/08 02:10:56;;;;;;;4.80;2.63;;;;;;;;;;6313280;22;20009;-78
2023/04/08 02:13:22;;;;;;;3.92;2.97;;;;;;;;;;6320440;22;20508;-80
2023/04/08 02:15:52;;;;;;;6.80;3.50;;;;;;;;;;6312644;22;19995;-79
2023/04/08 02:18:24;;;;;;;6.40;2.97;;;;;;;;;;6312858;22;20014;-79
2023/04/08 02:20:54;;;;;;;5.85;4.30;;;;;;;;;;6311989;22;19994;-80
2023/04/08 02:23:22;;;;;;;7.05;3.53;;;;;;;;;;6315787;22;20003;-78
2023/04/08 02:25:49;;;;;;;10.05;5.60;;;;;;;;;;6315669;22;20023;-79
2023/04/08 02:28:17;;;;;;;7.97;5.28;;;;;;;;;;6311995;22;20014;-80
2023/04/08 02:30:44;;;;;;;10.50;5.93;;;;;;;;;;6316061;22;20684;-79
2023/04/08 02:33:11;;;;;;;8.13;5.97;;;;;;;;;;6314558;22;20003;-80
2023/04/08 02:35:38;;;;;;;7.45;4.72;;;;;;;;;;6317396;22;20070;-77
2023/04/08 02:38:06;;;;;;;7.32;5.13;;;;;;;;;;6318115;22;20043;-81
2023/04/08 02:40:34;;;;;;;8.32;4.20;;;;;;;;;;6320698;22;19979;-79
2023/04/08 02:43:00;;;;;;;9.43;3.92;;;;;;;;;;6318581;22;20003;-81
2023/04/08 02:45:27;;;;;;;5.35;3.70;;;;;;;;;;6322209;22;20003;-79
2023/04/08 02:47:53;;;;;;;5.57;4.57;;;;;;;;;;6321264;22;20010;-79
2023/04/08 02:50:19;;;;;;;8.32;4.47;;;;;;;;;;6322523;22;20056;-79
2023/04/08 02:52:45;;;;;;;9.55;3.97;;;;;;;;;;6318165;22;20009;-79
2023/04/08 02:55:12;;;;;;;7.00;4.10;;;;;;;;;;6320494;22;20002;-78
2023/04/08 02:57:39;;;;;;;7.20;4.00;;;;;;;;;;6319496;22;20039;-79
2023/04/08 03:00:06;;;;;;;10.88;4.55;;;;;;;;;;6317050;22;20014;-79
2023/04/08 03:02:32;;;;;;;10.40;4.43;;;;;;;;;;6312914;22;20088;-79
2023/04/08 03:04:59;;;;;;;8.65;5.15;;;;;;;;;;6314517;22;20025;-78
2023/04/08 03:07:25;;;;;;;7.70;4.13;;;;;;;;;;6288678;22;20015;-79
2023/04/08 03:09:51;;;;;;;8.13;4.65;;;;;;;;;;6319940;22;20003;-80
2023/04/08 03:12:17;;;;;;;7.85;4.97;;;;;;;;;;6317434;22;20003;-79
2023/04/08 03:14:43;;;;;;;8.18;5.10;;;;;;;;;;6319099;22;20007;-79
2023/04/08 03:17:09;;;;;;;6.78;4.20;;;;;;;;;;6319160;22;20078;-80
2023/04/08 03:19:36;;;;;;;9.82;4.78;;;;;;;;;;6314098;22;20010;-78
2023/04/08 03:22:02;;;;;;;7.95;4.47;;;;;;;;;;6317856;22;20082;-78
2023/04/08 03:24:28;;;;;;;6.63;4.22;;;;;;;;;;6316932;22;20000;-79
2023/04/08 03:26:54;;;;;;;5.78;3.75;;;;;;;;;;6318684;22;20015;-80
2023/04/08 03:29:20;;;;;;;7.15;4.53;;;;;;;;;;6315329;22;20059;-80
2023/04/08 03:31:46;;;;;;;6.80;3.85;;;;;;;;;;6323594;22;19999;-78
2023/04/08 03:34:14;;;;;;;6.88;3.40;;;;;;;;;;6324682;22;20034;-79
2023/04/08 03:36:40;;;;;;;6.35;4.10;;;;;;;;;;6322139;22;20003;-80
2023/04/08 03:39:06;;;;;;;4.97;3.55;;;;;;;;;;6324792;22;19991;-78
2023/04/08 03:41:32;;;;;;;6.15;3.53;;;;;;;;;;6325559;22;20021;-79
2023/04/08 03:43:58;;;;;;;8.55;3.38;;;;;;;;;;6326253;22;20039;-79
2023/04/08 03:46:24;;;;;;;7.00;2.92;;;;;;;;;;6325639;22;20011;-79
2023/04/08 03:48:50;;;;;;;5.53;3.03;;;;;;;;;;6324445;22;20066;-80
2023/04/08 03:51:16;;;;;;;4.55;2.63;;;;;;;;;;6321960;22;20003;-78
2023/04/08 03:53:42;;;;;;;7.15;3.55;;;;;;;;;;6321624;22;20019;-79
2023/04/08 03:56:08;;;;;;;3.75;2.50;;;;;;;;;;6324327;22;20025;-79
2023/04/08 03:58:34;;;;;;;8.65;3.00;;;;;;;;;;6323459;22;20003;-79
2023/04/08 04:01:01;;;;;;;5.78;2.70;;;;;;;;;;6321816;22;20045;-79
2023/04/08 04:03:27;;;;;;;4.50;2.97;;;;;;;;;;6325134;22;19991;-79
2023/04/08 04:05:53;;;;;;;6.43;2.90;;;;;;;;;;6324241;22;20033;-79
2023/04/08 04:08:19;;;;;;;3.38;2.90;;;;;;;;;;6325989;22;20014;-80
2023/04/08 04:10:45;;;;;;;5.28;3.10;;;;;;;;;;6324057;22;20002;-79
2023/04/08 04:13:13;;;;;;;6.05;2.65;;;;;;;;;;6320337;22;20018;-79
2023/04/08 04:15:39;;;;;;;5.50;3.10;;;;;;;;;;6322626;22;19987;-80
2023/04/08 04:18:05;;;;;;;7.28;3.00;;;;;;;;;;6322595;22;20022;-79
2023/04/08 04:20:32;;;;;;;4.55;2.42;;;;;;;;;;6317323;22;20007;-79
2023/04/08 04:22:58;;;;;;;5.30;2.92;;;;;;;;;;6320627;22;20011;-79
2023/04/08 04:25:24;;;;;;;4.80;2.55;;;;;;;;;;6319330;22;19991;-79
2023/04/08 04:27:50;;;;;;;7.07;3.08;;;;;;;;;;6323089;22;19988;-79
2023/04/08 04:30:18;;;;;;;3.65;2.53;;;;;;;;;;6322513;22;20007;-79
2023/04/08 04:32:44;;;;;;;6.05;2.63;;;;;;;;;;6316893;22;20010;-81
2023/04/08 04:35:11;;;;;;;5.45;3.05;;;;;;;;;;6323271;22;20007;-80
2023/04/08 04:37:37;;;;;;;2.78;2.33;;;;;;;;;;6318433;22;20018;-78
2023/04/08 04:40:04;;;;;;;4.72;2.85;;;;;;;;;;6318584;22;20066;-78
2023/04/08 04:42:30;;;;;;;4.55;2.40;;;;;;;;;;6319866;22;20012;-79
2023/04/08 04:44:56;;;;;;;5.93;3.00;;;;;;;;;;6320855;22;20328;-80
2023/04/08 04:47:23;;;;;;;3.15;2.45;;;;;;;;;;6320239;22;20007;-79
2023/04/08 04:49:49;;;;;;;4.45;2.70;;;;;;;;;;6321571;22;20022;-78
2023/04/08 04:52:15;;;;;;;4.20;2.75;;;;;;;;;;6321185;22;20005;-79
2023/04/08 04:54:41;;;;;;;3.03;2.08;;;;;;;;;;6320486;22;19999;-78
2023/04/08 04:57:07;;;;;;;5.55;2.58;;;;;;;;;;6322575;22;20008;-78
2023/04/08 04:59:33;;;;;;;4.15;2.67;;;;;;;;;;6324677;22;20003;-78
2023/04/08 05:01:59;;;;;;;5.75;2.50;;;;;;;;;;6320221;22;20018;-81
2023/04/08 05:04:25;;;;;;;5.50;2.50;;;;;;;;;;6324407;22;20291;-79
2023/04/08 05:06:52;;;;;;;3.88;2.30;;;;;;;;;;6322090;22;20098;-78
2023/04/08 05:09:18;;;;;;;3.30;2.25;;;;;;;;;;6323480;22;19988;-78
2023/04/08 05:11:44;;;;;;;4.20;2.22;;;;;;;;;;6321802;22;20052;-80
2023/04/08 05:14:10;;;;;;;6.10;3.55;;;;;;;;;;6321365;22;19987;-80
2023/04/08 05:16:37;;;;;;;4.82;2.58;;;;;;;;;;6323974;22;20003;-78
2023/04/08 05:19:03;;;;;;;3.95;3.00;;;;;;;;;;6326332;22;20002;-79
2023/04/08 05:21:30;;;;;;;3.97;2.78;;;;;;;;;;6326650;22;20011;-78
2023/04/08 05:23:56;;;;;;;3.80;2.25;;;;;;;;;;6326805;22;19987;-79
2023/04/08 05:26:22;;;;;;;5.20;2.80;;;;;;;;;;6324396;22;20061;-78
2023/04/08 05:28:50;;;;;;;4.18;2.60;;;;;;;;;;6326713;22;19991;-78
2023/04/08 05:31:16;;;;;;;4.40;2.78;;;;;;;;;;6326467;22;19995;-79
2023/04/08 05:33:42;;;;;;;3.88;2.80;;;;;;;;;;6292112;22;20030;-75
2023/04/08 05:36:08;;;;;;;3.72;2.83;;;;;;;;;;6306194;22;20063;-75
2023/04/08 05:38:34;;;;;;;5.55;3.00;;;;;;;;;;6307823;22;20028;-75
2023/04/08 05:41:00;;;;;;;5.03;3.25;;;;;;;;;;6308479;22;20772;-75
2023/04/08 05:43:26;;;;;;;6.97;3.53;;;;;;;;;;6303966;22;20541;-76
2023/04/08 05:45:52;;;;;;;6.07;2.72;;;;;;;;;;6308077;22;20075;-75
2023/04/08 05:48:18;;;;;;;6.07;2.88;;;;;;;;;;6303047;22;20096;-75
2023/04/08 05:50:47;;;;;;;5.95;3.20;;;;;;;;;;6308048;22;20078;-78
2023/04/08 05:53:13;;;;;;;5.65;2.85;;;;;;;;;;6304845;22;20018;-76
2023/04/08 05:55:39;;;;;;;6.35;3.65;;;;;;;;;;6302571;22;20338;-77
2023/04/08 05:58:06;;;;;;;4.63;2.60;;;;;;;;;;6274289;22;20007;-77
2023/04/08 06:00:32;;;;;;;5.50;3.17;;;;;;;;;;6308670;22;20007;-79
2023/04/08 06:02:58;;;;;;;9.05;3.20;;;;;;;;;;6308330;22;20446;-77
2023/04/08 06:05:24;;;;;;;4.53;3.03;;;;;;;;;;6310253;22;20416;-78
2023/04/08 06:07:50;;;;;;;8.57;3.08;;;;;;;;;;6308736;22;20378;-78
2023/04/08 06:10:16;;;;;;;5.75;2.78;;;;;;;;;;6308206;22;20070;-77
2023/04/08 06:12:42;;;;;;;5.72;3.13;;;;;;;;;;6306654;22;20058;-78
2023/04/08 06:15:08;;;;;;;8.40;2.88;;;;;;;;;;6309807;22;20003;-77
2023/04/08 06:17:37;;;;;;;3.95;2.63;;;;;;;;;;6309881;22;20060;-77
2023/04/08 06:20:04;;;;;;;4.15;2.53;;;;;;;;;;6310542;22;20003;-78
2023/04/08 06:22:31;;;;;;;5.82;2.65;;;;;;;;;;6310937;22;20003;-78
2023/04/08 06:24:57;;;;;;;6.43;2.60;;;;;;;;;;6284410;22;20330;-77
2023/04/08 06:27:23;;;;;;;6.20;2.58;;;;;;;;;;6309196;22;19999;-77
2023/04/08 06:29:50;;;;;;;4.82;2.55;;;;;;;;;;6311489;22;20003;-77
2023/04/08 06:32:16;;;;;;;2.80;2.35;;;;;;;;;;6310353;22;19999;-78
2023/04/08 06:34:44;;;;;;;5.25;2.17;;;;;;;;;;6310901;22;20017;-78
2023/04/08 06:37:11;;;;;;;4.05;2.17;;;;;;;;;;6310330;22;20007;-77
2023/04/08 06:39:37;;;;;;;3.20;2.50;;;;;;;;;;6311760;22;20022;-77
2023/04/08 06:42:05;;;;;;;5.70;2.70;;;;;;;;;;6309325;22;20027;-78
2023/04/08 06:44:31;;;;;;;3.83;2.40;;;;;;;;;;6312735;22;20027;-78
2023/04/08 06:46:57;;;;;;;2.40;2.20;;;;;;;;;;6310267;22;20484;-78
2023/04/08 06:49:23;;;;;;;3.53;2.40;;;;;;;;;;6309220;22;20003;-78
2023/04/08 06:51:49;;;;;;;2.67;2.17;;;;;;;;;;6283664;22;20007;-77
2023/04/08 06:54:15;;;;;;;3.38;2.20;;;;;;;;;;6285618;22;20007;-77
2023/04/08 06:56:41;;;;;;;5.25;2.35;;;;;;;;;;6311079;22;20015;-78
2023/04/08 06:59:08;;;;;;;4.00;2.60;;;;;;;;;;6312461;22;20003;-78
2023/04/08 07:01:34;;;;;;;3.95;2.35;;;;;;;;;;6310659;22;20003;-77
2023/04/08 07:04:01;;;;;;;2.75;2.05;;;;;;;;;;6311166;22;19999;-77
2023/04/08 07:06:27;;;;;;;2.45;1.88;;;;;;;;;;6312431;22;20003;-77
2023/04/08 07:08:53;;;;;;;5.75;2.78;;;;;;;;;;6309506;22;20037;-78
2023/04/08 07:11:20;;;;;;;2.50;2.00;;;;;;;;;;6310295;22;20032;-79
2023/04/08 07:13:46;;;;;;;4.03;2.28;;;;;;;;;;6283105;22;20007;-77
2023/04/08 07:16:12;;;;;;;2.72;1.90;;;;;;;;;;6284473;22;20011;-78
2023/04/08 07:18:40;;;;;;;3.72;1.90;;;;;;;;;;6311013;22;20274;-77
2023/04/08 07:21:06;;;;;;;2.65;1.90;;;;;;;;;;6312477;22;20461;-77
2023/04/08 07:23:32;;;;;;;2.35;1.90;;;;;;;;;;6309851;22;20007;-78
2023/04/08 07:26:04;;;;;;;3.10;1.80;;;;;;;;;;6310789;22;20000;-78
2023/04/08 07:28:30;;;;;;;2.95;2.35;;;;;;;;;;6284768;22;20010;-77
2023/04/08 07:30:57;;;;;;;3.17;2.00;;;;;;;;;;6312149;22;20003;-77
2023/04/08 07:33:23;;;;;;;4.55;2.08;;;;;;;;;;6283191;22;20021;-79
2023/04/08 07:35:49;;;;;;;3.80;2.05;;;;;;;;;;6280871;22;20003;-79
2023/04/08 07:38:15;;;;;;;6.68;2.42;;;;;;;;;;6306924;22;20000;-77
2023/04/08 07:40:41;;;;;;;2.55;2.05;;;;;;;;;;6308727;22;20054;-78
2023/04/08 07:43:08;;;;;;;2.58;1.90;;;;;;;;;;6305955;22;20049;-78
2023/04/08 07:45:34;;;;;;;2.55;1.90;;;;;;;;;;6304840;22;20426;-77
2023/04/08 07:48:00;;;;;;;6.22;2.30;;;;;;;;;;6305847;22;20003;-77
2023/04/08 07:50:26;;;;;;;3.22;2.10;;;;;;;;;;6305520;22;20010;-78
2023/04/08 07:52:52;;;;;;;5.38;2.03;;;;;;;;;;6311430;22;20004;-77
2023/04/08 07:55:19;;;;;;;4.72;2.42;;;;;;;;;;6313260;22;20039;-78
2023/04/08 07:57:45;;;;;;;4.90;2.00;;;;;;;;;;6311282;22;20052;-78
2023/04/08 08:00:11;;;;;;;2.55;1.90;;;;;;;;;;6313079;22;20003;-77
2023/04/08 08:02:37;;;;;;;5.68;2.20;;;;;;;;;;6311739;22;20307;-78
2023/04/08 08:05:03;;;;;;;2.25;1.90;;;;;;;;;;6312800;22;20030;-78
2023/04/08 08:07:29;;;;;;;4.05;1.80;;;;;;;;;;6281831;22;20003;-78
2023/04/08 08:09:55;;;;;;;3.70;2.20;;;;;;;;;;6311493;22;20003;-78
2023/04/08 08:12:21;;;;;;;2.67;2.10;;;;;;;;;;6309800;22;20007;-78
2023/04/08 08:14:47;;;;;;;3.75;1.90;;;;;;;;;;6310107;22;20015;-78
2023/04/08 08:17:13;;;;;;;3.58;1.75;;;;;;;;;;6307959;22;20472;-78
2023/04/08 08:19:40;;;;;;;3.60;1.90;;;;;;;;;;6282086;22;20039;-78
2023/04/08 08:22:06;;;;;;;2.17;1.98;;;;;;;;;;6307349;22;20010;-77
2023/04/08 08:24:32;;;;;;;4.47;2.90;;;;;;;;;;6285245;22;20094;-78
2023/04/08 08:26:58;;;;;;;4.30;2.00;;;;;;;;;;6313138;22;19999;-80
2023/04/08 08:29:24;;;;;;;4.30;2.35;;;;;;;;;;6311709;22;20018;-78
2023/04/08 08:31:50;;;;;;;2.70;2.17;;;;;;;;;;6311652;22;20003;-78
2023/04/08 08:34:16;;;;;;;4.10;1.98;;;;;;;;;;6311766;22;20103;-79
2023/04/08 08:36:42;;;;;;;9.30;2.05;;;;;;;;;;6310785;22;20015;-79
2023/04/08 08:39:08;;;;;;;2.28;1.80;;;;;;;;;;6311022;22;20447;-79
2023/04/08 08:41:36;;;;;;;4.97;2.40;;;;;;;;;;6310046;22;20623;-79
2023/04/08 08:44:02;;;;;;;7.00;1.95;;;;;;;;;;6312588;22;20030;-78
2023/04/08 08:46:29;;;;;;;5.57;2.25;;;;;;;;;;6310434;22;20003;-79
2023/04/08 08:48:55;;;;;;;3.65;2.28;;;;;;;;;;6311412;22;20005;-79
2023/04/08 08:51:21;;;;;;;5.25;2.40;;;;;;;;;;6282914;22;20015;-79
2023/04/08 08:53:47;;;;;;;8.00;4.20;;;;;;;;;;6282733;22;20482;-78
2023/04/08 08:56:13;;;;;;;9.30;3.30;;;;;;;;;;6311660;22;20032;-78
2023/04/08 08:58:39;;;;;;;3.35;2.80;;;;;;;;;;6310956;22;20007;-78
2023/04/08 09:01:24;;;;;;;5.28;3.00;;;;;;;;;;6310745;22;20007;-79
2023/04/08 09:04:06;;;;;;;3.42;2.60;;;;;;;;;;6309912;22;20011;-78
2023/04/08 09:06:32;;;;;;;3.30;2.50;;;;;;;;;;6310563;22;20014;-79
2023/04/08 09:08:58;;;;;;;3.20;2.05;;;;;;;;;;6308806;22;20010;-80
2023/04/08 09:11:24;;;;;;;3.67;2.33;;;;;;;;;;6284579;22;20003;-79
2023/04/08 09:13:50;;;;;;;3.83;2.97;;;;;;;;;;6312796;22;20480;-80
2023/04/08 09:16:17;;;;;;;4.93;2.70;;;;;;;;;;6313280;22;20033;-80
2023/04/08 09:18:44;;;;;;;5.47;2.78;;;;;;;;;;6310730;22;20063;-79
2023/04/08 09:21:12;;;;;;;4.90;2.50;;;;;;;;;;6311586;22;20497;-79
2023/04/08 09:23:42;;;;;;;3.92;2.40;;;;;;;;;;6284843;22;20010;-79
2023/04/08 09:26:12;;;;;;;9.50;2.55;;;;;;;;;;6312039;22;20010;-79
2023/04/08 09:28:38;;;;;;;4.10;2.33;;;;;;;;;;6310699;22;20010;-80
2023/04/08 09:31:24;;;;;;;2.05;1.83;;;;;;;;;;6313014;22;20003;-79
2023/04/08 09:33:54;;;;;;;5.72;2.67;;;;;;;;;;6282834;22;20031;-79
2023/04/08 09:36:20;;;;;;;3.28;2.25;;;;;;;;;;6310905;22;20011;-79
2023/04/08 09:38:46;;;;;;;3.85;2.42;;;;;;;;;;6312655;22;20003;-79
2023/04/08 09:41:15;;;;;;;2.47;1.95;;;;;;;;;;6312930;22;20014;-79
2023/04/08 09:43:48;;;;;;;5.28;2.13;;;;;;;;;;6312759;22;20054;-79
2023/04/08 09:46:17;;;;;;;2.95;1.83;;;;;;;;;;6309906;22;19999;-80
2023/04/08 09:48:46;;;;;;;2.40;2.00;;;;;;;;;;6310354;22;20334;-79
2023/04/08 09:51:15;;;;;;;2.97;2.05;;;;;;;;;;6308725;22;20334;-78
2023/04/08 09:53:45;;;;;;;4.38;2.25;;;;;;;;;;6312447;22;20058;-80
2023/04/08 09:56:13;;;;;;;4.43;2.17;;;;;;;;;;6310620;22;20011;-80
2023/04/08 09:58:41;;;;;;;4.07;2.13;;;;;;;;;;6311331;22;20115;-81
2023/04/08 10:01:08;;;;;;;4.75;2.20;;;;;;;;;;6312653;22;20373;-78
2023/04/08 10:03:47;;;;;;;5.07;2.53;;;;;;;;;;6314376;22;20037;-79
2023/04/08 10:06:14;;;;;;;3.20;2.00;;;;;;;;;;6313784;22;19999;-78
2023/04/08 10:08:40;;;;;;;3.35;3.03;;;;;;;;;;6311004;22;20004;-77
2023/04/08 10:11:07;;;;;;;2.72;1.90;;;;;;;;;;6312484;22;20023;-79
2023/04/08 10:13:33;;;;;;;3.80;1.90;;;;;;;;;;6314333;22;20030;-79
2023/04/08 10:16:18;;;;;;;3.80;2.00;;;;;;;;;;6313224;22;20003;-78
2023/04/08 10:18:44;;;;;;;4.28;2.00;;;;;;;;;;6312690;22;20010;-77
2023/04/08 10:21:29;;;;;;;2.00;1.80;;;;;;;;;;6311600;22;20027;-79
2023/04/08 10:23:58;;;;;;;3.95;2.47;;;;;;;;;;6312109;22;20007;-79
2023/04/08 10:26:34;;;;;;;3.20;1.90;;;;;;;;;;6311438;22;19999;-77
2023/04/08 10:29:16;;;;;;;3.15;1.85;;;;;;;;;;6311568;22;20416;-79
2023/04/08 10:31:42;;;;;;;2.72;2.00;;;;;;;;;;6311725;22;20015;-78
2023/04/08 10:34:25;;;;;;;3.45;2.00;;;;;;;;;;6307769;22;20069;-78
2023/04/08 10:36:52;;;;;;;2.92;1.80;;;;;;;;;;6309125;22;20010;-78
2023/04/08 10:39:18;;;;;;;3.95;1.98;;;;;;;;;;6310134;22;20029;-79
2023/04/08 10:41:44;;;;;;;2.20;2.00;;;;;;;;;;6309723;22;20007;-78
2023/04/08 10:44:17;;;;;;;3.58;2.10;;;;;;;;;;6311010;22;20152;-78
2023/04/08 10:46:44;;;;;;;4.35;2.00;;;;;;;;;;6310448;22;20141;-79
2023/04/08 10:49:10;;;;;;;2.90;2.10;;;;;;;;;;6312527;22;20003;-79
2023/04/08 10:51:36;;;;;;;3.20;2.13;;;;;;;;;;6311541;22;20006;-78
2023/04/08 10:54:12;;;;;;;4.60;2.40;;;;;;;;;;6311715;22;20034;-78
2023/04/08 10:57:05;;;;;;;4.47;1.88;;;;;;;;;;6313745;22;20080;-79
2023/04/08 10:59:35;;;;;;;4.20;2.05;;;;;;;;;;6314002;22;20030;-79
2023/04/08 11:02:02;;;;;;;2.40;1.85;;;;;;;;;;6314964;22;20005;-79
2023/04/08 11:04:28;;;;;;;3.45;1.85;;;;;;;;;;6313188;22;20003;-79
2023/04/08 11:06:54;;;;;;;2.58;1.80;;;;;;;;;;6312904;22;20006;-80
2023/04/08 11:09:20;;;;;;;2.63;1.90;;;;;;;;;;6315328;22;20070;-80
2023/04/08 11:11:46;;;;;;;2.28;1.80;;;;;;;;;;6315037;22;19999;-81
2023/04/08 11:14:13;;;;;;;3.83;1.88;;;;;;;;;;6315081;22;20315;-79
2023/04/08 11:16:42;;;;;;;3.22;2.00;;;;;;;;;;6314782;22;20092;-77
2023/04/08 11:19:09;;;;;;;2.35;1.83;;;;;;;;;;6313283;22;20007;-79
2023/04/08 11:21:37;;;;;;;2.08;1.70;;;;;;;;;;6313343;22;20281;-79
2023/04/08 11:24:08;;;;;;;2.13;1.80;;;;;;;;;;6315241;22;20007;-79
2023/04/08 11:26:35;;;;;;;3.75;2.00;;;;;;;;;;6315383;22;19999;-79
2023/04/08 11:29:02;;;;;;;3.05;2.00;;;;;;;;;;6312923;22;20003;-79
2023/04/08 11:31:28;;;;;;;3.70;2.33;;;;;;;;;;6311820;22;20007;-78
2023/04/08 11:33:55;;;;;;;3.58;2.10;;;;;;;;;;6312658;22;20532;-78
2023/04/08 11:36:22;;;;;;;2.20;1.75;;;;;;;;;;6317172;22;20003;-79
2023/04/08 11:38:48;;;;;;;3.88;1.90;;;;;;;;;;6314947;22;20067;-79
2023/04/08 11:41:15;;;;;;;2.63;1.88;;;;;;;;;;6314227;22;20030;-80
2023/04/08 11:43:50;;;;;;;3.72;2.50;;;;;;;;;;6314776;22;20011;-78
2023/04/08 11:46:16;;;;;;;;;;;;;;;;;;6315715;22;20006;-79
2023/04/08 11:48:56;;;;;;;3.63;1.70;;;;;;;;;;6316783;22;19907;-79
2023/04/08 11:51:23;;;;;;;4.68;2.00;;;;;;;;;;6313411;22;20014;-82
2023/04/08 11:53:50;;;;;;;3.35;2.10;;;;;;;;;;6313753;22;20003;-79
2023/04/08 11:56:20;;;;;;;2.97;2.10;;;;;;;;;;6314903;22;20004;-79
2023/04/08 11:58:46;;;;;;;3.55;2.15;;;;;;;;;;6312349;22;20007;-79
2023/04/08 12:01:13;;;;;;;3.92;2.10;;;;;;;;;;6312994;22;20013;-79
2023/04/08 12:03:39;;;;;;;2.95;1.95;;;;;;;;;;6314359;22;20018;-79
2023/04/08 12:06:07;;;;;;;6.40;2.10;;;;;;;;;;6315157;22;20007;-79
2023/04/08 12:08:33;;;;;;;3.95;1.92;;;;;;;;;;6314620;22;20353;-79
2023/04/08 12:11:00;;;;;;;6.07;2.00;;;;;;;;;;6315963;22;19999;-79
2023/04/08 12:13:26;;;;;;;4.63;2.15;;;;;;;;;;6318011;22;19999;-80
2023/04/08 12:15:52;;;;;;;3.75;2.38;;;;;;;;;;6320150;22;20003;-81
2023/04/08 12:18:22;;;;;;;6.68;2.40;;;;;;;;;;6317841;22;20006;-79
2023/04/08 12:20:49;;;;;;;3.25;2.20;;;;;;;;;;6317689;22;20048;-80
2023/04/08 12:23:15;;;;;;;2.78;2.20;;;;;;;;;;6317621;22;20010;-81
2023/04/08 12:25:42;;;;;;;4.53;2.20;;;;;;;;;;6317692;22;20007;-80
2023/04/08 12:28:08;;;;;;;3.97;2.22;;;;;;;;;;6317774;22;20008;-80
2023/04/08 12:30:35;;;;;;;3.08;2.20;;;;;;;;;;6316849;22;20676;-80
2023/04/08 12:33:01;;;;;;;3.55;2.17;;;;;;;;;;6321035;22;20011;-80
2023/04/08 12:35:28;;;;;;;4.03;2.28;;;;;;;;;;6318885;22;20003;-81
2023/04/08 12:37:54;;;;;;;5.65;2.38;;;;;;;;;;6317900;22;20054;-80
2023/04/08 12:40:20;;;;;;;3.67;2.08;;;;;;;;;;6317006;22;20003;-80
2023/04/08 12:42:47;;;;;;;5.10;2.45;;;;;;;;;;6316779;22;20078;-80
2023/04/08 12:45:13;;;;;;;3.97;3.35;;;;;;;;;;6318175;22;20011;-80
2023/04/08 12:47:39;;;;;;;6.53;2.33;;;;;;;;;;6315817;22;20005;-81
2023/04/08 12:50:08;;;;;;;5.18;2.17;;;;;;;;;;6316985;22;20021;-80
2023/04/08 12:52:34;;;;;;;5.00;2.20;;;;;;;;;;6319477;22;20064;-80
2023/04/08 12:55:00;;;;;;;5.15;2.70;;;;;;;;;;6319294;22;19999;-80
2023/04/08 12:57:27;;;;;;;5.32;2.75;;;;;;;;;;6315466;22;20173;-79
2023/04/08 12:59:53;;;;;;;4.20;2.60;;;;;;;;;;6320969;22;20011;-80
2023/04/08 13:02:19;;;;;;;3.65;2.63;;;;;;;;;;6322036;22;19999;-81
2023/04/08 13:04:45;;;;;;;5.25;2.30;;;;;;;;;;6316130;22;20366;-78
2023/04/08 13:07:11;;;;;;;3.45;2.25;;;;;;;;;;6317952;22;19999;-79
2023/04/08 13:09:37;;;;;;;4.50;2.80;;;;;;;;;;6327345;22;20055;-82
2023/04/08 13:12:03;;;;;;;4.57;2.53;;;;;;;;;;6326113;22;20003;-81
2023/04/08 13:14:30;;;;;;;5.93;2.53;;;;;;;;;;6319159;22;20003;-79
2023/04/08 13:16:56;;;;;;;4.28;2.28;;;;;;;;;;6318363;22;20010;-79
2023/04/08 13:19:22;;;;;;;4.63;2.65;;;;;;;;;;6317621;22;19995;-79
2023/04/08 13:21:48;;;;;;;9.15;3.25;;;;;;;;;;6313504;22;20003;-80
2023/04/08 13:24:14;;;;;;;9.93;3.25;;;;;;;;;;6309427;22;20074;-79
2023/04/08 13:26:41;;;;;;;5.10;2.53;;;;;;;;;;6310789;22;20029;-79
2023/04/08 13:29:07;;;;;;;4.38;2.40;;;;;;;;;;6308105;22;20018;-77
2023/04/08 13:31:33;;;;;;;4.65;3.00;;;;;;;;;;6308434;22;20011;-79
2023/04/08 13:33:59;;;;;;;4.30;2.35;;;;;;;;;;6303866;22;20350;-79
2023/04/08 13:36:27;;;;;;;5.30;2.33;;;;;;;;;;6300736;22;20433;-79
2023/04/08 13:38:53;;;;;;;6.40;2.50;;;;;;;;;;6301405;22;20007;-79
2023/04/08 13:41:20;;;;;;;6.13;2.58;;;;;;;;;;6297099;22;20007;-78
2023/04/08 13:43:46;;;;;;;4.38;2.92;;;;;;;;;;6297598;22;20007;-79
2023/04/08 13:46:12;;;;;;;4.97;3.13;;;;;;;;;;6298617;22;20007;-78
2023/04/08 13:48:38;;;;;;;4.68;2.92;;;;;;;;;;6303134;22;20006;-77
2023/04/08 13:51:04;;;;;;;5.15;2.45;;;;;;;;;;6298453;22;20521;-79
2023/04/08 13:53:30;;;;;;;6.63;2.88;;;;;;;;;;6303452;22;20135;-78
2023/04/08 13:55:57;;;;;;;4.22;2.58;;;;;;;;;;6299993;22;19999;-79
2023/04/08 13:58:25;;;;;;;5.35;3.08;;;;;;;;;;6300304;22;20003;-79
2023/04/08 14:00:52;;;;;;;5.47;3.35;;;;;;;;;;6316049;22;20010;-80
2023/04/08 14:03:51;;;;;;;4.82;2.97;;;;;;;;;;6319572;22;20003;-77
2023/04/08 14:06:45;;;;;;;6.75;3.90;;;;;;;;;;6283336;22;20003;-76
2023/04/08 14:09:15;;;;;;;4.32;2.60;;;;;;;;;;6300114;22;20022;-80
2023/04/08 14:11:41;;;;;;;6.80;3.78;;;;;;;;;;6313064;22;20114;-87
2023/04/08 14:14:07;;;;;;;4.38;3.58;;;;;;;;;;6311179;22;20014;-89
2023/04/08 14:16:37;;;;;;;5.15;3.15;;;;;;;;;;6318842;22;20001;-88
2023/04/08 14:19:03;;;;;;;4.38;3.38;;;;;;;;;;6286473;22;19987;-87
2023/04/08 14:21:31;;;;;;;6.18;3.05;;;;;;;;;;6260849;22;20413;-83
2023/04/08 14:24:00;;;;;;;5.82;3.72;;;;;;;;;;6311618;22;20007;-90
2023/04/08 14:26:26;;;;;;;9.15;3.35;;;;;;;;;;6310783;22;20707;-85
2023/04/08 14:28:54;;;;;;;5.63;2.97;;;;;;;;;;6284382;22;20003;-87
2023/04/08 14:31:20;;;;;;;4.47;2.92;;;;;;;;;;6284225;22;20472;-84
2023/04/08 14:33:46;;;;;;;5.90;3.92;;;;;;;;;;6308570;22;20009;-85
2023/04/08 14:36:12;;;;;;;7.07;3.40;;;;;;;;;;6282566;22;20010;-84
2023/04/08 14:38:39;;;;;;;6.70;3.50;;;;;;;;;;6284513;22;20011;-82
2023/04/08 14:41:05;;;;;;;4.90;3.47;;;;;;;;;;6280125;22;20935;-82
2023/04/08 14:43:31;;;;;;;5.45;3.20;;;;;;;;;;6284153;22;19984;-85